Time;durP1;ratioP1;P1;durP2;ratioP2;P2;SDS_P1;SDS_P2;PMS_P1;PMS_P2;Temp;Humidity;BMP_temperature;BMP_pressure;BME280_temperature;BME280_humidity;BME280_pressure;Samples;Min_cycle;Max_cycle;Signal;HPM_P1;HPM_P2
2023/01/08 00:02:34;;;;;;;;;;;;;;;10.13;69.63;100734.97;5414373;32;33629;-68
2023/01/08 00:05:37;;;;;;;;;;;;;;;9.76;71.64;100725.59;5397687;32;33075;-84
2023/01/08 00:08:39;;;;;;;;;;;;;;;9.63;71.36;100739.13;5411464;32;33119;-68
2023/01/08 00:11:41;;;;;;;;;;;;;;;8.04;77.71;100745.87;5395026;32;33857;-83
2023/01/08 00:14:43;;;;;;;;;;;;;;;9.16;74.71;100743.97;5401328;32;34113;-84
2023/01/08 00:17:45;;;;;;;;;;;;;;;8.92;73.98;100737.63;5410526;32;34699;-68
2023/01/08 00:20:47;;;;;;;;;;;;;;;8.20;78.64;100749.88;5396245;32;44341;-71
2023/01/08 00:23:49;;;;;;;;;;;;;;;8.81;75.50;100747.53;5414994;32;33488;-84
2023/01/08 00:26:51;;;;;;;;;;;;;;;8.96;74.95;100744.53;5397210;32;33602;-69
2023/01/08 00:29:53;;;;;;;;;;;;;;;9.03;74.83;100730.34;5413535;32;33685;-68
2023/01/08 00:32:55;;;;;;;;;;;;;;;9.31;73.60;100729.56;5399381;32;34359;-69
2023/01/08 00:35:57;;;;;;;;;;;;;;;9.73;70.77;100727.47;5392466;32;33774;-69
2023/01/08 00:38:59;;;;;;;;;;;;;;;9.22;73.24;100717.59;5409270;32;33850;-84
2023/01/08 00:42:01;;;;;;;;;;;;;;;9.23;72.68;100720.16;5395306;32;33230;-68
2023/01/08 00:45:03;;;;;;;;;;;;;;;9.17;73.81;100712.47;5415533;32;31842;-68
2023/01/08 00:48:05;;;;;;;;;;;;;;;9.50;71.65;100715.00;5398723;32;34000;-85
2023/01/08 00:51:08;;;;;;;;;;;;;;;8.22;76.28;100719.28;5397272;32;33148;-83
2023/01/08 00:54:10;;;;;;;;;;;;;;;9.46;73.92;100702.88;5395857;32;34317;-83
2023/01/08 00:57:12;;;;;;;;;;;;;;;8.37;76.92;100710.22;5386376;32;32886;-68
2023/01/08 01:00:14;;;;;;;;;;;;;;;8.84;74.68;100700.28;5413729;32;33904;-83
2023/01/08 01:03:16;;;;;;;;;;;;;;;9.18;73.56;100716.78;5396217;32;44869;-84
2023/01/08 01:06:18;;;;;;;;;;;;;;;9.87;70.78;100719.16;5413975;32;33477;-68
2023/01/08 01:09:20;;;;;;;;;;;;;;;9.49;72.05;100723.78;5396969;32;32996;-67
2023/01/08 01:12:22;;;;;;;;;;;;;;;9.13;73.53;100716.06;5413081;32;34256;-83
2023/01/08 01:15:24;;;;;;;;;;;;;;;9.45;72.28;100732.66;5370150;32;939659;-78
2023/01/08 01:18:26;;;;;;;;;;;;;;;9.13;72.84;100723.91;5398745;32;33557;-69
2023/01/08 01:21:29;;;;;;;;;;;;;;;9.32;72.58;100726.88;5412275;32;33877;-69
2023/01/08 01:24:31;;;;;;;;;;;;;;;9.40;71.37;100727.56;5400291;32;36256;-84
2023/01/08 01:27:33;;;;;;;;;;;;;;;9.67;71.33;100723.25;5415940;32;34584;-85
2023/01/08 01:30:35;;;;;;;;;;;;;;;9.28;71.82;100717.41;5397366;32;33743;-84
2023/01/08 01:33:37;;;;;;;;;;;;;;;9.65;69.60;100722.41;5410193;32;34078;-68
2023/01/08 01:36:38;;;;;;;;;;;;;;;9.60;70.61;100719.09;5396794;32;33909;-68
2023/01/08 01:39:45;;;;;;;;;;;;;;;10.22;68.47;100705.75;5394994;32;34228;-85
2023/01/08 01:42:47;;;;;;;;;;;;;;;10.17;68.48;100702.41;5414141;32;45744;-85
2023/01/08 01:45:49;;;;;;;;;;;;;;;9.89;69.28;100691.09;5397830;32;34247;-82
2023/01/08 01:48:52;;;;;;;;;;;;;;;9.95;67.98;100693.53;5414854;32;33820;-83
2023/01/08 01:51:55;;;;;;;;;;;;;;;10.77;65.66;100676.81;5376356;32;34276;-85
2023/01/08 01:54:57;;;;;;;;;;;;;;;9.41;68.61;100675.94;5409292;32;34353;-69
2023/01/08 01:58:04;;;;;;;;;;;;;;;9.87;69.01;100680.63;5400647;32;34674;-75
2023/01/08 02:01:06;;;;;;;;;;;;;;;9.85;70.07;100678.94;5395366;32;33056;-68
2023/01/08 02:04:09;;;;;;;;;;;;;;;9.55;71.27;100670.28;5412646;32;33438;-68
2023/01/08 02:07:20;;;;;;;;;;;;;;;9.58;70.71;100662.28;5395619;32;33596;-68
2023/01/08 02:10:34;;;;;;;;;;;;;;;9.88;67.51;100652.62;5412286;32;44398;-84
2023/01/08 02:13:37;;;;;;;;;;;;;;;10.50;66.03;100647.94;5396816;32;33816;-68
2023/01/08 02:16:42;;;;;;;;;;;;;;;9.42;69.15;100648.81;5398738;32;33020;-69
2023/01/08 02:19:47;;;;;;;;;;;;;;;9.97;68.50;100653.16;5411047;32;33966;-69
2023/01/08 02:22:52;;;;;;;;;;;;;;;9.70;68.48;100649.66;5394724;32;45280;-83
2023/01/08 02:26:06;;;;;;;;;;;;;;;10.30;66.69;100643.38;5414120;32;33064;-84
2023/01/08 02:29:10;;;;;;;;;;;;;;;10.51;65.53;100643.53;5396163;32;33788;-83
2023/01/08 02:32:12;;;;;;;;;;;;;;;10.02;67.26;100645.16;5405332;32;33736;-68
2023/01/08 02:35:14;;;;;;;;;;;;;;;9.68;68.26;100638.34;5384680;32;34043;-68
2023/01/08 02:38:15;;;;;;;;;;;;;;;9.93;67.47;100634.97;5393878;32;34132;-84
2023/01/08 02:41:17;;;;;;;;;;;;;;;10.36;65.94;100633.53;5411307;32;47683;-83
2023/01/08 02:44:21;;;;;;;;;;;;;;;9.76;67.38;100632.84;5396342;32;34921;-68
2023/01/08 02:47:24;;;;;;;;;;;;;;;9.77;68.48;100640.69;5400175;32;33851;-68
2023/01/08 02:50:45;;;;;;;;;;;;;;;10.12;67.28;100635.22;5372343;32;33761;-69
2023/01/08 02:53:47;;;;;;;;;;;;;;;8.93;73.09;100634.47;5389959;32;47232;-87
2023/01/08 02:56:53;;;;;;;;;;;;;;;8.90;72.18;100634.59;5411697;32;34117;-68
2023/01/08 02:59:55;;;;;;;;;;;;;;;9.19;71.56;100642.44;5393807;32;34227;-85
2023/01/08 03:03:16;;;;;;;;;;;;;;;9.87;68.01;100616.78;5411030;32;34266;-69
2023/01/08 03:06:18;;;;;;;;;;;;;;;9.63;70.00;100621.03;5386050;32;44647;-68
2023/01/08 03:09:20;;;;;;;;;;;;;;;9.83;68.71;100623.87;5404724;32;33296;-68
2023/01/08 03:12:23;;;;;;;;;;;;;;;8.72;72.22;100633.34;5404686;32;33737;-68
2023/01/08 03:15:33;;;;;;;;;;;;;;;9.99;67.42;100617.22;5394633;32;33899;-70
2023/01/08 03:18:36;;;;;;;;;;;;;;;8.88;70.32;100613.63;5411643;32;33099;-69
2023/01/08 03:21:38;;;;;;;;;;;;;;;7.96;74.52;100612.59;5393977;32;34233;-83
2023/01/08 03:24:40;;;;;;;;;;;;;;;9.35;70.52;100606.16;5409621;32;33652;-68
2023/01/08 03:27:44;;;;;;;;;;;;;;;9.70;69.31;100607.66;5384633;32;33941;-85
2023/01/08 03:30:46;;;;;;;;;;;;;;;9.84;67.33;100594.09;5396879;32;43873;-68
2023/01/08 03:33:48;;;;;;;;;;;;;;;9.53;68.46;100609.94;5395873;32;33448;-69
2023/01/08 03:36:50;;;;;;;;;;;;;;;9.72;68.73;100610.22;5386397;32;33645;-68
2023/01/08 03:40:11;;;;;;;;;;;;;;;9.59;68.43;100603.66;5407154;32;33940;-69
2023/01/08 03:43:13;;;;;;;;;;;;;;;9.68;68.13;100599.00;5396829;32;33157;-84
2023/01/08 03:46:17;;;;;;;;;;;;;;;9.78;68.09;100600.38;5409961;32;34770;-83
2023/01/08 03:49:20;;;;;;;;;;;;;;;9.72;67.74;100592.75;5398842;32;45190;-68
2023/01/08 03:52:22;;;;;;;;;;;;;;;9.81;67.75;100593.34;5375799;32;33743;-67
2023/01/08 03:55:24;;;;;;;;;;;;;;;9.43;68.75;100592.78;5414201;32;33684;-77
2023/01/08 03:58:26;;;;;;;;;;;;;;;10.22;66.22;100573.56;5399207;32;34514;-69
2023/01/08 04:01:28;;;;;;;;;;;;;;;9.80;67.50;100576.75;5414469;32;34006;-68
2023/01/08 04:04:30;;;;;;;;;;;;;;;10.57;64.72;100573.22;5398036;32;33412;-69
2023/01/08 04:07:32;;;;;;;;;;;;;;;9.89;67.11;100581.69;5394701;32;33498;-69
2023/01/08 04:10:34;;;;;;;;;;;;;;;9.96;66.81;100572.69;5403434;32;33808;-77
2023/01/08 04:13:36;;;;;;;;;;;;;;;9.67;67.57;100581.53;5399503;32;33192;-69
2023/01/08 04:16:37;;;;;;;;;;;;;;;10.11;66.25;100576.56;5408153;32;33210;-83
2023/01/08 04:19:39;;;;;;;;;;;;;;;9.75;67.42;100582.13;5398009;32;34260;-83
2023/01/08 04:22:41;;;;;;;;;;;;;;;9.42;68.65;100578.81;5414068;32;34430;-83
2023/01/08 04:25:43;;;;;;;;;;;;;;;9.50;69.18;100584.69;5398477;32;34605;-82
2023/01/08 04:28:45;;;;;;;;;;;;;;;9.14;70.17;100591.03;5409686;32;33783;-69
2023/01/08 04:31:47;;;;;;;;;;;;;;;9.18;69.36;100580.44;5402954;32;46038;-69
2023/01/08 04:34:49;;;;;;;;;;;;;;;9.08;70.78;100575.50;5392407;32;33915;-68
2023/01/08 04:37:51;;;;;;;;;;;;;;;9.53;68.99;100577.59;5412257;32;33750;-85
2023/01/08 04:40:57;;;;;;;;;;;;;;;7.90;75.40;100578.72;5396927;32;33509;-84
2023/01/08 04:43:59;;;;;;;;;;;;;;;8.91;72.53;100574.25;5399299;32;33851;-69
2023/01/08 04:47:01;;;;;;;;;;;;;;;9.68;68.40;100585.87;5397294;32;34498;-86
2023/01/08 04:50:03;;;;;;;;;;;;;;;9.15;69.41;100587.53;5402842;32;33071;-68
2023/01/08 04:53:05;;;;;;;;;;;;;;;9.80;67.31;100582.00;5389207;32;34784;-68
2023/01/08 04:56:08;;;;;;;;;;;;;;;9.70;67.57;100588.44;5398022;32;34520;-83
2023/01/08 04:59:10;;;;;;;;;;;;;;;9.97;66.84;100584.03;5413079;32;33519;-84
2023/01/08 05:02:12;;;;;;;;;;;;;;;10.00;66.36;100584.81;5397966;32;33657;-69
2023/01/08 05:05:14;;;;;;;;;;;;;;;9.86;67.28;100586.19;5411625;32;33981;-85
2023/01/08 05:08:16;;;;;;;;;;;;;;;9.68;68.33;100588.50;5398719;32;46138;-86
2023/01/08 05:11:18;;;;;;;;;;;;;;;9.69;67.52;100587.56;5404558;32;33765;-84
2023/01/08 05:14:20;;;;;;;;;;;;;;;9.39;69.29;100591.16;5408048;32;34475;-84
2023/01/08 05:17:22;;;;;;;;;;;;;;;9.86;67.45;100586.19;5394975;32;33562;-69
2023/01/08 05:20:24;;;;;;;;;;;;;;;9.86;67.19;100575.69;5413595;32;33770;-68
2023/01/08 05:23:26;;;;;;;;;;;;;;;10.10;66.17;100572.22;5397790;32;33993;-84
2023/01/08 05:26:28;;;;;;;;;;;;;;;9.69;67.34;100566.59;5413636;32;34324;-83
2023/01/08 05:29:29;;;;;;;;;;;;;;;9.29;68.85;100572.25;5395022;32;33678;-83
2023/01/08 05:32:31;;;;;;;;;;;;;;;9.42;68.66;100568.31;5403899;32;32360;-70
2023/01/08 05:35:33;;;;;;;;;;;;;;;9.72;67.76;100568.22;5403448;32;35979;-70
2023/01/08 05:38:35;;;;;;;;;;;;;;;9.38;69.41;100563.22;5394026;32;32807;-83
2023/01/08 05:41:37;;;;;;;;;;;;;;;9.64;67.87;100558.00;5415060;32;34389;-76
2023/01/08 05:44:39;;;;;;;;;;;;;;;10.10;65.85;100559.06;5398240;32;33624;-70
2023/01/08 05:47:41;;;;;;;;;;;;;;;9.56;67.56;100562.63;5413844;32;33827;-83
2023/01/08 05:50:43;;;;;;;;;;;;;;;9.30;69.16;100566.09;5373809;32;34322;-84
2023/01/08 05:53:45;;;;;;;;;;;;;;;9.89;66.75;100555.41;5395731;32;33986;-69
2023/01/08 05:56:46;;;;;;;;;;;;;;;10.13;65.85;100547.62;5408612;32;43366;-84
2023/01/08 05:59:48;;;;;;;;;;;;;;;9.93;66.44;100550.94;5398579;32;33567;-68
2023/01/08 06:02:50;;;;;;;;;;;;;;;10.13;65.48;100545.84;5416471;32;33467;-86
2023/01/08 06:05:52;;;;;;;;;;;;;;;9.31;67.51;100545.97;5397149;32;33089;-68
2023/01/08 06:08:54;;;;;;;;;;;;;;;10.01;65.91;100534.00;5410114;32;33391;-69
2023/01/08 06:11:56;;;;;;;;;;;;;;;10.29;64.67;100523.41;5383434;32;33065;-68
2023/01/08 06:14:58;;;;;;;;;;;;;;;8.97;69.08;100541.75;5399827;32;34160;-69
2023/01/08 06:18:01;;;;;;;;;;;;;;;9.62;67.86;100533.56;5393940;32;34001;-82
2023/01/08 06:21:04;;;;;;;;;;;;;;;9.91;66.08;100536.97;5397840;32;33761;-84
2023/01/08 06:24:06;;;;;;;;;;;;;;;9.76;66.57;100533.13;5406784;32;34554;-68
2023/01/08 06:27:07;;;;;;;;;;;;;;;9.20;69.04;100539.25;5397491;32;33103;-69
2023/01/08 06:30:09;;;;;;;;;;;;;;;9.52;67.82;100532.16;5411794;32;33833;-84
2023/01/08 06:33:11;;;;;;;;;;;;;;;9.32;68.93;100530.16;5392694;32;33801;-83
2023/01/08 06:36:13;;;;;;;;;;;;;;;9.96;66.32;100529.81;5396930;32;34219;-68
2023/01/08 06:39:15;;;;;;;;;;;;;;;8.99;69.15;100524.19;5406911;32;33497;-83
2023/01/08 06:42:17;;;;;;;;;;;;;;;9.56;68.26;100520.66;5392925;32;44651;-84
2023/01/08 06:45:19;;;;;;;;;;;;;;;9.51;67.16;100519.94;5414474;32;35967;-68
2023/01/08 06:48:21;;;;;;;;;;;;;;;9.25;67.28;100525.16;5399170;32;33949;-84
2023/01/08 06:51:23;;;;;;;;;;;;;;;9.12;69.32;100524.69;5395467;32;33533;-83
2023/01/08 06:54:25;;;;;;;;;;;;;;;9.94;66.37;100526.41;5393672;32;33788;-68
2023/01/08 06:57:27;;;;;;;;;;;;;;;9.33;67.91;100534.50;5401217;32;33501;-76
2023/01/08 07:00:28;;;;;;;;;;;;;;;9.78;66.48;100526.91;5407511;32;33750;-69
2023/01/08 07:03:30;;;;;;;;;;;;;;;9.36;66.76;100530.94;5396342;32;33549;-70
2023/01/08 07:06:32;;;;;;;;;;;;;;;9.75;66.79;100532.25;5413937;32;34009;-76
2023/01/08 07:09:35;;;;;;;;;;;;;;;9.48;65.87;100536.66;5396784;32;32984;-77
2023/01/08 07:12:36;;;;;;;;;;;;;;;9.75;65.81;100521.75;5413176;32;33486;-77
2023/01/08 07:15:39;;;;;;;;;;;;;;;9.41;67.36;100529.03;5397412;32;33878;-69
2023/01/08 07:18:41;;;;;;;;;;;;;;;9.56;67.47;100532.91;5400178;32;35317;-85
2023/01/08 07:21:43;;;;;;;;;;;;;;;8.97;69.61;100536.50;5417419;32;34385;-84
2023/01/08 07:24:45;;;;;;;;;;;;;;;9.62;67.92;100536.19;5395497;32;34144;-69
2023/01/08 07:27:48;;;;;;;;;;;;;;;9.43;68.33;100532.47;5412843;32;44660;-86
2023/01/08 07:30:50;;;;;;;;;;;;;;;9.42;67.61;100526.34;5397653;32;33622;-85
2023/01/08 07:33:51;;;;;;;;;;;;;;;9.95;65.08;100528.09;5409191;32;33222;-86
2023/01/08 07:36:53;;;;;;;;;;;;;;;9.83;65.78;100529.38;5394204;32;33755;-78
2023/01/08 07:39:55;;;;;;;;;;;;;;;9.77;66.16;100525.19;5396872;32;33290;-69
2023/01/08 07:42:58;;;;;;;;;;;;;;;9.69;66.33;100523.72;5395516;32;34317;-77
2023/01/08 07:46:03;;;;;;;;;;;;;;;9.74;66.11;100521.81;5396424;32;33053;-84
2023/01/08 07:49:05;;;;;;;;;;;;;;;9.36;67.08;100528.31;5410835;32;34047;-68
2023/01/08 07:52:07;;;;;;;;;;;;;;;9.30;68.28;100524.13;5376406;32;33813;-87
2023/01/08 07:55:09;;;;;;;;;;;;;;;9.44;67.62;100523.66;5409971;32;34197;-68
2023/01/08 07:58:11;;;;;;;;;;;;;;;9.62;67.04;100514.34;5398623;32;33972;-84
2023/01/08 08:01:13;;;;;;;;;;;;;;;8.85;68.46;100521.16;5396502;32;34039;-84
2023/01/08 08:04:15;;;;;;;;;;;;;;;9.57;67.28;100516.25;5410792;32;33744;-69
2023/01/08 08:07:17;;;;;;;;;;;;;;;9.63;66.11;100506.41;5393513;32;43264;-70
2023/01/08 08:10:19;;;;;;;;;;;;;;;9.25;67.59;100514.69;5411233;32;33826;-68
2023/01/08 08:13:21;;;;;;;;;;;;;;;8.93;69.14;100514.75;5395289;32;33862;-85
2023/01/08 08:16:23;;;;;;;;;;;;;;;9.72;66.25;100505.25;5410613;32;33505;-84
2023/01/08 08:19:25;;;;;;;;;;;;;;;9.55;67.05;100503.19;5397886;32;34677;-85
2023/01/08 08:22:27;;;;;;;;;;;;;;;9.73;66.26;100492.09;5396892;32;34306;-69
2023/01/08 08:25:29;;;;;;;;;;;;;;;9.06;68.51;100504.75;5411152;32;33880;-68
2023/01/08 08:28:31;;;;;;;;;;;;;;;9.27;67.67;100487.47;5396033;32;31025;-69
2023/01/08 08:31:33;;;;;;;;;;;;;;;8.27;71.63;100486.97;5410467;32;33540;-84
2023/01/08 08:34:35;;;;;;;;;;;;;;;9.02;70.34;100473.47;5377174;32;34199;-69
2023/01/08 08:37:36;;;;;;;;;;;;;;;9.48;67.46;100483.31;5404692;32;34059;-83
2023/01/08 08:40:38;;;;;;;;;;;;;;;9.80;65.64;100479.62;5397968;32;33450;-83
2023/01/08 08:43:40;;;;;;;;;;;;;;;10.07;64.17;100471.69;5396649;32;36520;-85
2023/01/08 08:46:42;;;;;;;;;;;;;;;9.77;65.30;100477.94;5415537;32;33834;-69
2023/01/08 08:49:44;;;;;;;;;;;;;;;10.03;64.40;100474.41;5399252;32;33227;-69
2023/01/08 08:52:47;;;;;;;;;;;;;;;8.91;68.37;100468.53;5380096;32;43726;-84
2023/01/08 08:55:49;;;;;;;;;;;;;;;9.77;66.00;100475.31;5400123;32;34209;-85
2023/01/08 08:58:51;;;;;;;;;;;;;;;9.26;66.81;100470.03;5412989;32;34246;-84
2023/01/08 09:01:53;;;;;;;;;;;;;;;9.86;65.30;100478.56;5401890;32;33309;-84
2023/01/08 09:04:55;;;;;;;;;;;;;;;9.53;65.50;100473.50;5397937;32;33918;-77
2023/01/08 09:07:57;;;;;;;;;;;;;;;9.61;65.82;100483.78;5414870;32;33165;-70
2023/01/08 09:11:01;;;;;;;;;;;;;;;9.98;63.73;100470.22;5396452;32;33400;-85
2023/01/08 09:14:02;;;;;;;;;;;;;;;9.96;63.85;100466.81;5415966;32;33629;-85
2023/01/08 09:17:04;;;;;;;;;;;;;;;10.08;63.40;100455.88;5396970;32;34311;-78
2023/01/08 09:20:06;;;;;;;;;;;;;;;9.84;63.15;100461.97;5410548;32;34298;-69
2023/01/08 09:23:08;;;;;;;;;;;;;;;9.43;65.46;100465.09;5398501;32;34641;-82
2023/01/08 09:26:10;;;;;;;;;;;;;;;9.63;65.08;100463.56;5396062;32;34523;-71
2023/01/08 09:29:12;;;;;;;;;;;;;;;10.12;63.03;100460.09;5399550;32;33730;-85
2023/01/08 09:32:14;;;;;;;;;;;;;;;9.98;63.78;100454.47;5397011;32;33278;-84
2023/01/08 09:35:16;;;;;;;;;;;;;;;9.91;63.78;100452.97;5381269;32;36717;-70
2023/01/08 09:38:19;;;;;;;;;;;;;;;9.68;64.34;100451.16;5394469;32;33774;-68
2023/01/08 09:41:27;;;;;;;;;;;;;;;9.61;64.06;100447.88;5409172;32;34919;-84
2023/01/08 09:44:30;;;;;;;;;;;;;;;10.24;62.80;100443.06;5401982;32;33485;-86
2023/01/08 09:47:36;;;;;;;;;;;;;;;10.32;62.13;100438.41;5395069;32;33376;-68
2023/01/08 09:50:38;;;;;;;;;;;;;;;10.29;62.12;100430.59;5399325;32;34262;-85
2023/01/08 09:53:41;;;;;;;;;;;;;;;10.31;62.55;100413.03;5386489;32;33562;-69
2023/01/08 09:56:43;;;;;;;;;;;;;;;10.29;61.70;100409.59;5410249;32;33552;-84
2023/01/08 09:59:48;;;;;;;;;;;;;;;10.03;63.38;100408.75;5383016;32;34177;-68
2023/01/08 10:02:52;;;;;;;;;;;;;;;9.45;65.88;100404.72;5399566;32;44516;-68
2023/01/08 10:05:55;;;;;;;;;;;;;;;10.76;61.26;100386.75;5407313;32;33988;-68
2023/01/08 10:08:56;;;;;;;;;;;;;;;10.79;60.69;100391.88;5396688;32;33103;-70
2023/01/08 10:11:59;;;;;;;;;;;;;;;10.41;61.58;100366.25;5412944;32;33742;-70
2023/01/08 10:15:03;;;;;;;;;;;;;;;10.67;60.65;100365.22;5394793;32;32866;-69
2023/01/08 10:18:12;;;;;;;;;;;;;;;10.53;60.42;100364.00;5410682;32;33677;-69
2023/01/08 10:21:14;;;;;;;;;;;;;;;11.22;58.46;100355.94;5395773;32;33938;-69
2023/01/08 10:24:15;;;;;;;;;;;;;;;11.14;59.02;100352.75;5397632;32;34002;-68
2023/01/08 10:27:21;;;;;;;;;;;;;;;11.09;59.11;100352.13;5410506;32;45230;-68
2023/01/08 10:30:29;;;;;;;;;;;;;;;11.41;57.98;100349.91;5395178;32;33729;-70
2023/01/08 10:33:39;;;;;;;;;;;;;;;11.26;59.06;100343.50;5409887;32;34107;-78
2023/01/08 10:36:41;;;;;;;;;;;;;;;11.90;56.69;100324.91;5385989;32;33904;-68
2023/01/08 10:39:45;;;;;;;;;;;;;;;11.96;56.95;100340.44;5403516;32;33905;-68
2023/01/08 10:42:46;;;;;;;;;;;;;;;11.46;57.53;100329.47;5399371;32;46054;-86
2023/01/08 10:45:59;;;;;;;;;;;;;;;11.62;57.65;100325.25;5394071;32;34310;-68
2023/01/08 10:49:01;;;;;;;;;;;;;;;11.69;57.29;100315.31;5411906;32;33817;-83
2023/01/08 10:52:04;;;;;;;;;;;;;;;11.41;57.98;100316.53;5373614;32;34315;-84
2023/01/08 10:55:12;;;;;;;;;;;;;;;11.74;56.70;100314.19;5409272;32;33115;-85
2023/01/08 10:58:14;;;;;;;;;;;;;;;11.23;58.79;100315.56;5394823;32;33348;-68
2023/01/08 11:01:21;;;;;;;;;;;;;;;11.30;58.98;100297.72;5398172;32;43374;-84
2023/01/08 11:04:31;;;;;;;;;;;;;;;11.96;56.74;100307.97;5407527;32;33711;-68
2023/01/08 11:07:34;;;;;;;;;;;;;;;11.65;57.39;100298.78;5394989;32;32977;-68
2023/01/08 11:10:36;;;;;;;;;;;;;;;12.13;56.16;100300.16;5411387;32;34469;-84
2023/01/08 11:13:38;;;;;;;;;;;;;;;11.56;57.22;100296.56;5394958;32;33598;-75
2023/01/08 11:16:40;;;;;;;;;;;;;;;11.74;57.07;100285.22;5410124;32;33644;-84
2023/01/08 11:19:42;;;;;;;;;;;;;;;11.79;57.18;100275.34;5398478;32;33296;-68
2023/01/08 11:22:44;;;;;;;;;;;;;;;12.01;56.94;100277.00;5396783;32;33701;-84
2023/01/08 11:25:55;;;;;;;;;;;;;;;12.03;56.37;100267.25;5410256;32;46847;-69
2023/01/08 11:29:09;;;;;;;;;;;;;;;12.00;56.91;100248.97;5383072;32;33379;-76
2023/01/08 11:32:14;;;;;;;;;;;;;;;11.45;57.90;100243.56;5410863;32;33697;-84
2023/01/08 11:35:19;;;;;;;;;;;;;;;11.67;58.32;100244.31;5377908;32;45911;-69
2023/01/08 11:38:21;;;;;;;;;;;;;;;11.03;60.46;100241.91;5395751;32;33408;-68
2023/01/08 11:41:42;;;;;;;;;;;;;;;12.03;57.65;100219.84;5395569;32;33701;-84
2023/01/08 11:45:08;;;;;;;;;;;;;;;12.28;56.87;100219.50;5395257;32;33804;-68
2023/01/08 11:48:29;;;;;;;;;;;;;;;11.65;58.00;100219.81;5407554;32;34058;-69
2023/01/08 11:51:35;;;;;;;;;;;;;;;11.71;58.21;100224.78;5379347;32;33880;-85
2023/01/08 11:54:40;;;;;;;;;;;;;;;12.48;56.26;100216.75;5390818;32;33912;-69
2023/01/08 11:57:45;;;;;;;;;;;;;;;12.61;55.69;100212.56;5411459;32;33276;-83
2023/01/08 12:00:47;;;;;;;;;;;;;;;11.38;59.50;100207.00;5394356;32;46521;-69
2023/01/08 12:03:51;;;;;;;;;;;;;;;12.50;56.81;100200.88;5410380;32;34403;-69
2023/01/08 12:07:00;;;;;;;;;;;;;;;12.14;58.33;100197.31;5393267;32;34130;-79
2023/01/08 12:10:20;;;;;;;;;;;;;;;13.04;55.23;100186.63;5387432;32;33842;-86
2023/01/08 12:13:22;;;;;;;;;;;;;;;13.16;54.36;100186.00;5413956;32;44621;-85
2023/01/08 12:16:30;;;;;;;;;;;;;;;13.01;55.36;100198.22;5387268;32;33063;-69
2023/01/08 12:19:42;;;;;;;;;;;;;;;13.24;54.32;100185.63;5412790;32;34093;-68
2023/01/08 12:22:51;;;;;;;;;;;;;;;12.10;57.13;100193.13;5388988;32;33631;-69
2023/01/08 12:25:52;;;;;;;;;;;;;;;12.14;57.95;100192.06;5403267;32;44925;-69
2023/01/08 12:28:57;;;;;;;;;;;;;;;11.44;60.23;100197.13;5407895;32;33996;-85
2023/01/08 12:32:04;;;;;;;;;;;;;;;11.59;59.84;100183.25;5398106;32;33382;-85
2023/01/08 12:35:07;;;;;;;;;;;;;;;12.91;55.82;100185.56;5409434;32;34287;-78
2023/01/08 12:38:15;;;;;;;;;;;;;;;12.99;55.85;100171.03;5394664;32;32487;-84
2023/01/08 12:41:17;;;;;;;;;;;;;;;12.47;56.13;100183.41;5411321;32;44691;-84
2023/01/08 12:44:23;;;;;;;;;;;;;;;10.65;62.60;100191.81;5398006;32;34460;-84
2023/01/08 12:47:26;;;;;;;;;;;;;;;11.34;60.49;100178.28;5395274;32;33354;-69
2023/01/08 12:50:38;;;;;;;;;;;;;;;12.22;58.25;100180.28;5402419;32;34233;-85
2023/01/08 12:53:40;;;;;;;;;;;;;;;11.20;60.61;100163.09;5388442;32;33513;-84
2023/01/08 12:56:42;;;;;;;;;;;;;;;11.88;59.58;100174.88;5413408;32;34639;-86
2023/01/08 12:59:46;;;;;;;;;;;;;;;12.62;57.02;100155.41;5397362;32;33700;-69
2023/01/08 13:02:58;;;;;;;;;;;;;;;12.15;57.67;100177.09;5407772;32;45266;-68
2023/01/08 13:06:18;;;;;;;;;;;;;;;11.95;59.40;100166.69;5404100;32;35147;-84
2023/01/08 13:09:23;;;;;;;;;;;;;;;12.35;58.00;100162.94;5382607;32;44501;-85
2023/01/08 13:12:27;;;;;;;;;;;;;;;12.45;57.58;100170.31;5412934;32;34609;-69
2023/01/08 13:15:30;;;;;;;;;;;;;;;12.41;57.61;100160.00;5397317;32;34092;-78
2023/01/08 13:18:32;;;;;;;;;;;;;;;12.56;57.64;100161.00;5408019;32;34474;-85
2023/01/08 13:21:35;;;;;;;;;;;;;;;12.31;58.04;100158.75;5398040;32;34455;-85
2023/01/08 13:24:37;;;;;;;;;;;;;;;12.67;57.38;100150.75;5393622;32;31480;-69
2023/01/08 13:27:39;;;;;;;;;;;;;;;12.02;59.33;100154.91;5397945;32;34126;-85
2023/01/08 13:30:41;;;;;;;;;;;;;;;12.42;58.22;100154.63;5383360;32;33616;-68
2023/01/08 13:33:45;;;;;;;;;;;;;;;11.90;60.00;100151.94;5401008;32;33957;-85
2023/01/08 13:36:55;;;;;;;;;;;;;;;12.31;58.49;100156.13;5379215;32;44262;-70
2023/01/08 13:39:56;;;;;;;;;;;;;;;11.29;62.29;100151.31;5391321;32;33699;-79
2023/01/08 13:42:59;;;;;;;;;;;;;;;11.45;61.25;100146.19;5395927;32;34534;-70
2023/01/08 13:46:00;;;;;;;;;;;;;;;11.29;61.92;100159.22;5396537;32;33081;-84
2023/01/08 13:49:06;;;;;;;;;;;;;;;12.14;59.54;100154.31;5411787;32;33849;-84
2023/01/08 13:52:26;;;;;;;;;;;;;;;11.58;61.48;100142.91;5376442;32;34397;-87
2023/01/08 13:55:38;;;;;;;;;;;;;;;11.09;62.02;100146.97;5398337;32;33562;-86
2023/01/08 13:58:43;;;;;;;;;;;;;;;11.16;62.87;100145.75;5398489;32;33730;-82
2023/01/08 14:01:54;;;;;;;;;;;;;;;11.35;61.95;100132.63;5396588;32;33963;-86
2023/01/08 14:04:57;;;;;;;;;;;;;;;12.46;58.46;100145.66;5413194;32;32629;-78
2023/01/08 14:07:59;;;;;;;;;;;;;;;11.59;60.95;100146.38;5396011;32;34163;-78
2023/01/08 14:11:01;;;;;;;;;;;;;;;11.12;62.34;100146.81;5413238;32;34147;-84
2023/01/08 14:14:03;;;;;;;;;;;;;;;9.99;66.46;100147.22;5398187;32;33560;-70
2023/01/08 14:17:12;;;;;;;;;;;;;;;10.43;65.95;100144.59;5405784;32;33523;-68
2023/01/08 14:20:14;;;;;;;;;;;;;;;10.54;65.00;100144.09;5404042;32;33525;-69
2023/01/08 14:23:25;;;;;;;;;;;;;;;10.61;65.21;100152.59;5396265;32;36402;-69
2023/01/08 14:26:35;;;;;;;;;;;;;;;10.24;65.25;100152.37;5410089;32;35206;-78
2023/01/08 14:29:43;;;;;;;;;;;;;;;9.91;68.04;100157.16;5396927;32;34080;-84
2023/01/08 14:32:45;;;;;;;;;;;;;;;9.52;69.14;100150.84;5406783;32;33592;-68
2023/01/08 14:35:49;;;;;;;;;;;;;;;9.45;69.71;100151.09;5393487;32;45121;-85
2023/01/08 14:38:52;;;;;;;;;;;;;;;10.22;66.81;100148.91;5391664;32;33422;-68
2023/01/08 14:45:30;;;;;;;;;;;;;;;10.37;66.23;100149.22;5396737;32;34273;-70
2023/01/08 14:48:40;;;;;;;;;;;;;;;8.91;71.04;100144.38;5410149;32;33106;-69
2023/01/08 14:51:42;;;;;;;;;;;;;;;9.15;70.04;100149.66;5380081;32;34091;-85
2023/01/08 14:54:44;;;;;;;;;;;;;;;9.25;69.22;100153.63;5393125;32;33624;-69
2023/01/08 14:57:47;;;;;;;;;;;;;;;8.94;71.28;100146.88;5409707;32;35381;-80
2023/01/08 15:00:54;;;;;;;;;;;;;;;9.26;70.35;100136.13;5393979;32;34081;-70
2023/01/08 15:04:06;;;;;;;;;;;;;;;9.39;69.73;100145.22;5410779;32;33408;-70
2023/01/08 15:07:17;;;;;;;;;;;;;;;9.58;69.29;100140.97;5395601;32;33581;-69
2023/01/08 15:10:39;;;;;;;;;;;;;;;8.81;72.64;100145.59;5399829;32;44007;-84
2023/01/08 15:13:41;;;;;;;;;;;;;;;8.99;71.63;100138.84;5410002;32;33509;-69
2023/01/08 15:16:43;;;;;;;;;;;;;;;9.49;69.07;100134.34;5389534;32;33910;-86
2023/01/08 15:19:48;;;;;;;;;;;;;;;8.89;71.41;100140.97;5411195;32;34143;-69
2023/01/08 15:22:50;;;;;;;;;;;;;;;8.98;71.19;100138.91;5396089;32;47039;-86
2023/01/08 15:25:53;;;;;;;;;;;;;;;9.70;68.47;100140.50;5407906;32;32996;-86
2023/01/08 15:28:55;;;;;;;;;;;;;;;9.01;70.99;100137.03;5401068;32;34505;-86
2023/01/08 15:31:57;;;;;;;;;;;;;;;9.21;71.95;100131.91;5395712;32;33928;-84
2023/01/08 15:34:59;;;;;;;;;;;;;;;8.68;72.86;100134.69;5408071;32;34225;-69
2023/01/08 15:38:01;;;;;;;;;;;;;;;8.37;75.35;100132.31;5391699;32;33847;-70
2023/01/08 15:41:03;;;;;;;;;;;;;;;8.35;75.74;100125.37;5411046;32;34278;-69
2023/01/08 15:44:05;;;;;;;;;;;;;;;8.77;74.33;100112.56;5397882;32;33255;-69
2023/01/08 15:47:07;;;;;;;;;;;;;;;8.45;74.87;100125.97;5406593;32;36005;-84
2023/01/08 15:50:09;;;;;;;;;;;;;;;9.34;72.44;100116.56;5399067;32;33622;-84
2023/01/08 15:53:12;;;;;;;;;;;;;;;9.09;71.58;100108.78;5384502;32;33747;-68
2023/01/08 15:56:14;;;;;;;;;;;;;;;9.02;71.74;100102.06;5414393;32;32876;-69